sensor_id;sensor_type;location;lat;lon;timestamp;pressure;altitude;pressure_sealevel;temperature;humidity
11523;BME280;70090;43.208;27.904;2023-05-12T00:00:54;101507.00;;;13.20;100.00
11523;BME280;70090;43.208;27.904;2023-05-12T00:03:21;101505.06;;;13.20;100.00
11523;BME280;70090;43.208;27.904;2023-05-12T00:05:50;101499.53;;;13.20;100.00
11523;BME280;70090;43.208;27.904;2023-05-12T00:08:17;101498.28;;;13.18;100.00
11523;BME280;70090;43.208;27.904;2023-05-12T00:10:44;101490.69;;;13.11;100.00
11523;BME280;70090;43.208;27.904;2023-05-12T00:13:10;101507.75;;;13.17;100.00
11523;BME280;70090;43.208;27.904;2023-05-12T00:15:37;101500.19;;;13.14;100.00
11523;BME280;70090;43.208;27.904;2023-05-12T00:18:04;101502.53;;;13.12;100.00
11523;BME280;70090;43.208;27.904;2023-05-12T00:20:31;101497.38;;;13.10;100.00
11523;BME280;70090;43.208;27.904;2023-05-12T00:22:59;101495.72;;;13.06;100.00
11523;BME280;70090;43.208;27.904;2023-05-12T00:25:26;101507.94;;;13.05;100.00
11523;BME280;70090;43.208;27.904;2023-05-12T00:27:53;101505.47;;;13.00;100.00
11523;BME280;70090;43.208;27.904;2023-05-12T00:30:20;101506.22;;;12.97;100.00
11523;BME280;70090;43.208;27.904;2023-05-12T00:32:46;101504.97;;;12.94;100.00
11523;BME280;70090;43.208;27.904;2023-05-12T00:35:14;101500.94;;;12.92;100.00
11523;BME280;70090;43.208;27.904;2023-05-12T00:37:41;101498.19;;;12.92;100.00
11523;BME280;70090;43.208;27.904;2023-05-12T00:40:10;101484.63;;;12.83;100.00
11523;BME280;70090;43.208;27.904;2023-05-12T00:42:37;101490.38;;;12.94;100.00
11523;BME280;70090;43.208;27.904;2023-05-12T00:45:05;101498.66;;;12.94;100.00
11523;BME280;70090;43.208;27.904;2023-05-12T00:47:32;101499.09;;;12.96;100.00
11523;BME280;70090;43.208;27.904;2023-05-12T00:49:59;101499.00;;;12.92;100.00
11523;BME280;70090;43.208;27.904;2023-05-12T00:52:27;101518.00;;;12.94;100.00
11523;BME280;70090;43.208;27.904;2023-05-12T00:54:54;101500.69;;;12.97;100.00
11523;BME280;70090;43.208;27.904;2023-05-12T00:57:24;101503.03;;;12.95;100.00
11523;BME280;70090;43.208;27.904;2023-05-12T00:59:52;101503.72;;;12.92;100.00
11523;BME280;70090;43.208;27.904;2023-05-12T01:02:19;101499.78;;;12.93;100.00
11523;BME280;70090;43.208;27.904;2023-05-12T01:04:46;101503.72;;;12.92;100.00
11523;BME280;70090;43.208;27.904;2023-05-12T01:07:17;101501.53;;;13.01;100.00
11523;BME280;70090;43.208;27.904;2023-05-12T01:09:44;101489.25;;;13.21;100.00
11523;BME280;70090;43.208;27.904;2023-05-12T01:12:11;101482.78;;;13.36;100.00
11523;BME280;70090;43.208;27.904;2023-05-12T01:14:40;101488.13;;;13.48;100.00
11523;BME280;70090;43.208;27.904;2023-05-12T01:17:09;101481.66;;;13.40;100.00
11523;BME280;70090;43.208;27.904;2023-05-12T01:19:39;101486.19;;;13.26;100.00
11523;BME280;70090;43.208;27.904;2023-05-12T01:22:07;101481.31;;;13.19;100.00
11523;BME280;70090;43.208;27.904;2023-05-12T01:24:39;101490.28;;;13.13;100.00
11523;BME280;70090;43.208;27.904;2023-05-12T01:27:11;101482.75;;;13.10;100.00
11523;BME280;70090;43.208;27.904;2023-05-12T01:29:38;101481.91;;;13.06;100.00
11523;BME280;70090;43.208;27.904;2023-05-12T01:32:06;101482.63;;;13.03;100.00
11523;BME280;70090;43.208;27.904;2023-05-12T01:34:33;101480.19;;;12.98;100.00
11523;BME280;70090;43.208;27.904;2023-05-12T01:37:01;101474.91;;;12.93;100.00
11523;BME280;70090;43.208;27.904;2023-05-12T01:39:27;101470.13;;;12.90;100.00
11523;BME280;70090;43.208;27.904;2023-05-12T01:41:54;101477.56;;;12.86;100.00
11523;BME280;70090;43.208;27.904;2023-05-12T01:44:23;101474.38;;;12.84;100.00
11523;BME280;70090;43.208;27.904;2023-05-12T01:46:49;101462.44;;;12.80;100.00
11523;BME280;70090;43.208;27.904;2023-05-12T01:49:16;101464.00;;;12.77;100.00
11523;BME280;70090;43.208;27.904;2023-05-12T01:51:43;101467.88;;;12.73;100.00
11523;BME280;70090;43.208;27.904;2023-05-12T01:54:10;101465.09;;;12.73;100.00
11523;BME280;70090;43.208;27.904;2023-05-12T01:56:36;101466.25;;;12.72;100.00
11523;BME280;70090;43.208;27.904;2023-05-12T01:59:03;101460.72;;;12.72;100.00
11523;BME280;70090;43.208;27.904;2023-05-12T02:01:32;101468.66;;;12.73;100.00
11523;BME280;70090;43.208;27.904;2023-05-12T02:03:59;101467.78;;;12.69;100.00
11523;BME280;70090;43.208;27.904;2023-05-12T02:06:25;101471.34;;;12.70;100.00
11523;BME280;70090;43.208;27.904;2023-05-12T02:08:52;101474.09;;;12.70;100.00
11523;BME280;70090;43.208;27.904;2023-05-12T02:11:19;101466.97;;;12.69;100.00
11523;BME280;70090;43.208;27.904;2023-05-12T02:13:46;101467.78;;;12.69;100.00
11523;BME280;70090;43.208;27.904;2023-05-12T02:16:13;101461.88;;;12.71;100.00
11523;BME280;70090;43.208;27.904;2023-05-12T02:18:41;101461.88;;;12.71;100.00
11523;BME280;70090;43.208;27.904;2023-05-12T02:21:08;101452.69;;;12.63;100.00
11523;BME280;70090;43.208;27.904;2023-05-12T02:23:35;101455.94;;;12.69;100.00
11523;BME280;70090;43.208;27.904;2023-05-12T02:26:01;101455.50;;;12.67;100.00
11523;BME280;70090;43.208;27.904;2023-05-12T02:28:28;101466.97;;;12.69;100.00
11523;BME280;70090;43.208;27.904;2023-05-12T02:30:55;101475.69;;;12.71;100.00
11523;BME280;70090;43.208;27.904;2023-05-12T02:33:22;101445.31;;;12.71;100.00
11523;BME280;70090;43.208;27.904;2023-05-12T02:35:50;101455.19;;;12.72;100.00
11523;BME280;70090;43.208;27.904;2023-05-12T02:38:17;101459.94;;;12.71;100.00
11523;BME280;70090;43.208;27.904;2023-05-12T02:40:45;101452.75;;;12.67;100.00
11523;BME280;70090;43.208;27.904;2023-05-12T02:43:11;101453.91;;;12.66;100.00
11523;BME280;70090;43.208;27.904;2023-05-12T02:45:38;101462.97;;;12.66;100.00
11523;BME280;70090;43.208;27.904;2023-05-12T02:48:05;101462.19;;;12.66;100.00
11523;BME280;70090;43.208;27.904;2023-05-12T02:50:32;101461.47;;;12.69;100.00
11523;BME280;70090;43.208;27.904;2023-05-12T02:53:00;101465.81;;;12.70;100.00
11523;BME280;70090;43.208;27.904;2023-05-12T02:55:27;101466.97;;;12.69;100.00
11523;BME280;70090;43.208;27.904;2023-05-12T02:57:55;101467.88;;;12.73;100.00
11523;BME280;70090;43.208;27.904;2023-05-12T03:00:21;101472.22;;;12.74;100.00
11523;BME280;70090;43.208;27.904;2023-05-12T03:02:48;101471.84;;;12.75;100.00
11523;BME280;70090;43.208;27.904;2023-05-12T03:05:16;101475.84;;;12.78;100.00
11523;BME280;70090;43.208;27.904;2023-05-12T03:07:42;101481.34;;;12.78;100.00
11523;BME280;70090;43.208;27.904;2023-05-12T03:10:11;101479.75;;;12.77;100.00
11523;BME280;70090;43.208;27.904;2023-05-12T03:12:38;101480.94;;;12.76;100.00
11523;BME280;70090;43.208;27.904;2023-05-12T03:15:05;101486.59;;;12.83;100.00
11523;BME280;70090;43.208;27.904;2023-05-12T03:17:33;101483.09;;;12.86;100.00
11523;BME280;70090;43.208;27.904;2023-05-12T03:20:00;101477.50;;;12.82;100.00
11523;BME280;70090;43.208;27.904;2023-05-12T03:22:27;101482.94;;;12.79;100.00
11523;BME280;70090;43.208;27.904;2023-05-12T03:24:54;101471.13;;;12.78;100.00
11523;BME280;70090;43.208;27.904;2023-05-12T03:27:22;101487.88;;;12.89;100.00
11523;BME280;70090;43.208;27.904;2023-05-12T03:29:49;101489.47;;;12.90;100.00
11523;BME280;70090;43.208;27.904;2023-05-12T03:32:16;101495.81;;;12.90;100.00
11523;BME280;70090;43.208;27.904;2023-05-12T03:34:42;101497.50;;;12.95;100.00
11523;BME280;70090;43.208;27.904;2023-05-12T03:37:09;101496.75;;;12.98;100.00
11523;BME280;70090;43.208;27.904;2023-05-12T03:39:36;101487.44;;;13.06;100.00
11523;BME280;70090;43.208;27.904;2023-05-12T03:42:04;101490.63;;;13.08;100.00
11523;BME280;70090;43.208;27.904;2023-05-12T03:44:32;101487.59;;;13.16;100.00
11523;BME280;70090;43.208;27.904;2023-05-12T03:46:59;101493.53;;;13.18;100.00
11523;BME280;70090;43.208;27.904;2023-05-12T03:49:26;101489.69;;;13.23;100.00
11523;BME280;70090;43.208;27.904;2023-05-12T03:51:53;101494.03;;;13.24;100.00
11523;BME280;70090;43.208;27.904;2023-05-12T03:54:19;101485.44;;;13.29;100.00
11523;BME280;70090;43.208;27.904;2023-05-12T03:56:46;101483.84;;;13.28;100.00
11523;BME280;70090;43.208;27.904;2023-05-12T03:59:13;101486.69;;;13.31;100.00
11523;BME280;70090;43.208;27.904;2023-05-12T04:01:41;101484.81;;;13.39;100.00
11523;BME280;70090;43.208;27.904;2023-05-12T04:04:08;101491.31;;;13.50;100.00
11523;BME280;70090;43.208;27.904;2023-05-12T04:06:35;101486.69;;;13.57;100.00
11523;BME280;70090;43.208;27.904;2023-05-12T04:09:02;101489.88;;;13.59;100.00
11523;BME280;70090;43.208;27.904;2023-05-12T04:11:29;101484.81;;;13.65;100.00
11523;BME280;70090;43.208;27.904;2023-05-12T04:13:56;101487.66;;;13.68;100.00
11523;BME280;70090;43.208;27.904;2023-05-12T04:16:23;101484.59;;;13.77;100.00
11523;BME280;70090;43.208;27.904;2023-05-12T04:18:51;101493.66;;;13.74;100.00
11523;BME280;70090;43.208;27.904;2023-05-12T04:21:18;101492.91;;;13.77;100.00
11523;BME280;70090;43.208;27.904;2023-05-12T04:23:45;101489.00;;;13.81;100.00
11523;BME280;70090;43.208;27.904;2023-05-12T04:26:12;101496.63;;;13.88;100.00
11523;BME280;70090;43.208;27.904;2023-05-12T04:28:38;101491.09;;;13.88;100.00
11523;BME280;70090;43.208;27.904;2023-05-12T04:31:05;101495.97;;;13.98;100.00
11523;BME280;70090;43.208;27.904;2023-05-12T04:33:32;101486.94;;;14.01;100.00
11523;BME280;70090;43.208;27.904;2023-05-12T04:36:00;101488.59;;;14.09;100.00
11523;BME280;70090;43.208;27.904;2023-05-12T04:38:27;101489.56;;;14.20;100.00
11523;BME280;70090;43.208;27.904;2023-05-12T04:40:56;101485.72;;;14.28;100.00
11523;BME280;70090;43.208;27.904;2023-05-12T04:43:24;101481.09;;;14.39;100.00
11523;BME280;70090;43.208;27.904;2023-05-12T04:45:51;101475.34;;;14.54;100.00
11523;BME280;70090;43.208;27.904;2023-05-12T04:48:19;101487.25;;;14.55;100.00
11523;BME280;70090;43.208;27.904;2023-05-12T04:50:46;101478.50;;;14.53;100.00
11523;BME280;70090;43.208;27.904;2023-05-12T04:53:15;101470.63;;;14.55;98.54
11523;BME280;70090;43.208;27.904;2023-05-12T04:55:42;101475.47;;;14.65;97.57
11523;BME280;70090;43.208;27.904;2023-05-12T04:58:10;101484.94;;;14.64;96.14
11523;BME280;70090;43.208;27.904;2023-05-12T05:00:37;101490.16;;;14.69;95.91
11523;BME280;70090;43.208;27.904;2023-05-12T05:03:04;101497.03;;;14.82;96.28
11523;BME280;70090;43.208;27.904;2023-05-12T05:05:31;101493.56;;;14.92;94.39
11523;BME280;70090;43.208;27.904;2023-05-12T05:07:59;101497.16;;;14.95;93.07
11523;BME280;70090;43.208;27.904;2023-05-12T05:10:27;101487.72;;;15.03;90.94
11523;BME280;70090;43.208;27.904;2023-05-12T05:12:54;101499.72;;;15.14;89.33
11523;BME280;70090;43.208;27.904;2023-05-12T05:15:21;101490.69;;;15.24;88.01
11523;BME280;70090;43.208;27.904;2023-05-12T05:17:48;101491.56;;;15.32;85.46
11523;BME280;70090;43.208;27.904;2023-05-12T05:20:15;101497.56;;;15.37;84.41
11523;BME280;70090;43.208;27.904;2023-05-12T05:22:42;101498.41;;;15.41;83.16
11523;BME280;70090;43.208;27.904;2023-05-12T05:25:09;101500.84;;;15.50;83.34
11523;BME280;70090;43.208;27.904;2023-05-12T05:27:37;101510.47;;;15.66;82.14
11523;BME280;70090;43.208;27.904;2023-05-12T05:30:05;101499.91;;;15.82;80.27
11523;BME280;70090;43.208;27.904;2023-05-12T05:32:34;101500.72;;;15.90;78.66
11523;BME280;70090;43.208;27.904;2023-05-12T05:35:01;101507.13;;;15.97;78.29
11523;BME280;70090;43.208;27.904;2023-05-12T05:37:28;101495.66;;;16.02;77.28
11523;BME280;70090;43.208;27.904;2023-05-12T05:39:55;101506.00;;;16.12;76.21
11523;BME280;70090;43.208;27.904;2023-05-12T05:42:21;101506.88;;;16.27;76.13
11523;BME280;70090;43.208;27.904;2023-05-12T05:44:50;101509.31;;;16.39;74.90
11523;BME280;70090;43.208;27.904;2023-05-12T05:47:16;101517.75;;;16.53;73.02
11523;BME280;70090;43.208;27.904;2023-05-12T05:49:43;101513.44;;;16.69;70.83
11523;BME280;70090;43.208;27.904;2023-05-12T05:52:10;101514.25;;;16.80;68.76
11523;BME280;70090;43.208;27.904;2023-05-12T05:54:37;101513.47;;;16.90;68.51
11523;BME280;70090;43.208;27.904;2023-05-12T05:57:04;101522.22;;;16.96;66.22
11523;BME280;70090;43.208;27.904;2023-05-12T05:59:31;101519.84;;;16.98;65.63
11523;BME280;70090;43.208;27.904;2023-05-12T06:01:59;101490.38;;;16.69;65.62
11523;BME280;70090;43.208;27.904;2023-05-12T06:04:26;101519.00;;;16.83;66.90
11523;BME280;70090;43.208;27.904;2023-05-12T06:06:53;101525.38;;;16.87;67.55
11523;BME280;70090;43.208;27.904;2023-05-12T06:09:20;101518.22;;;16.79;67.30
11523;BME280;70090;43.208;27.904;2023-05-12T06:11:46;101517.44;;;16.86;67.72
11523;BME280;70090;43.208;27.904;2023-05-12T06:14:13;101514.25;;;16.87;68.37
11523;BME280;70090;43.208;27.904;2023-05-12T06:16:40;101511.47;;;16.87;66.66
11523;BME280;70090;43.208;27.904;2023-05-12T06:19:08;101522.59;;;16.87;66.53
11523;BME280;70090;43.208;27.904;2023-05-12T06:21:36;101522.97;;;16.79;65.92
11523;BME280;70090;43.208;27.904;2023-05-12T06:24:03;101521.44;;;16.88;66.14
11523;BME280;70090;43.208;27.904;2023-05-12T06:26:30;101519.84;;;16.98;66.09
11523;BME280;70090;43.208;27.904;2023-05-12T06:28:56;101515.09;;;17.09;65.83
11523;BME280;70090;43.208;27.904;2023-05-12T06:31:23;101523.44;;;17.19;65.37
11523;BME280;70090;43.208;27.904;2023-05-12T06:33:50;101532.59;;;17.16;63.98
11523;BME280;70090;43.208;27.904;2023-05-12T06:36:18;101525.06;;;17.20;64.83
11523;BME280;70090;43.208;27.904;2023-05-12T06:38:45;101521.47;;;17.23;66.13
11523;BME280;70090;43.208;27.904;2023-05-12T06:41:12;101514.31;;;17.26;67.39
11523;BME280;70090;43.208;27.904;2023-05-12T06:43:38;101519.94;;;17.43;68.10
11523;BME280;70090;43.208;27.904;2023-05-12T06:46:06;101529.47;;;17.60;67.27
11523;BME280;70090;43.208;27.904;2023-05-12T06:48:33;101520.69;;;17.68;63.85
11523;BME280;70090;43.208;27.904;2023-05-12T06:50:59;101525.47;;;17.71;63.02
11523;BME280;70090;43.208;27.904;2023-05-12T06:53:28;101518.31;;;17.70;61.97
11523;BME280;70090;43.208;27.904;2023-05-12T06:55:55;101523.88;;;17.80;60.65
11523;BME280;70090;43.208;27.904;2023-05-12T06:58:21;101523.84;;;17.91;60.13
11523;BME280;70090;43.208;27.904;2023-05-12T07:00:48;101531.00;;;17.92;61.16
11523;BME280;70090;43.208;27.904;2023-05-12T07:03:15;101522.25;;;17.97;61.29
11523;BME280;70090;43.208;27.904;2023-05-12T07:05:42;101526.22;;;17.99;61.62
11523;BME280;70090;43.208;27.904;2023-05-12T07:08:08;101532.59;;;18.03;62.24
11523;BME280;70090;43.208;27.904;2023-05-12T07:10:37;101520.22;;;18.08;62.46
11523;BME280;70090;43.208;27.904;2023-05-12T07:13:04;101530.53;;;18.35;62.76
11523;BME280;70090;43.208;27.904;2023-05-12T07:15:31;101541.22;;;18.47;62.18
11523;BME280;70090;43.208;27.904;2023-05-12T07:17:58;101525.72;;;18.46;62.24
11523;BME280;70090;43.208;27.904;2023-05-12T07:20:25;101539.66;;;18.46;61.99
11523;BME280;70090;43.208;27.904;2023-05-12T07:22:52;101539.66;;;18.43;61.15
11523;BME280;70090;43.208;27.904;2023-05-12T07:25:19;101534.84;;;18.47;61.23
11523;BME280;70090;43.208;27.904;2023-05-12T07:27:47;101541.25;;;18.44;60.75
11523;BME280;70090;43.208;27.904;2023-05-12T07:30:14;101547.56;;;18.51;60.38
11523;BME280;70090;43.208;27.904;2023-05-12T07:32:42;101533.63;;;18.55;60.56
11523;BME280;70090;43.208;27.904;2023-05-12T07:35:08;101542.72;;;18.73;60.07
11523;BME280;70090;43.208;27.904;2023-05-12T07:37:36;101535.56;;;18.65;57.65
11523;BME280;70090;43.208;27.904;2023-05-12T07:40:03;101546.72;;;18.68;57.96
11523;BME280;70090;43.208;27.904;2023-05-12T07:42:30;101542.69;;;18.80;58.88
11523;BME280;70090;43.208;27.904;2023-05-12T07:44:58;101539.47;;;18.81;58.72
11523;BME280;70090;43.208;27.904;2023-05-12T07:47:25;101557.03;;;18.78;56.22
11523;BME280;70090;43.208;27.904;2023-05-12T07:49:53;101545.91;;;18.68;56.47
11523;BME280;70090;43.208;27.904;2023-05-12T07:52:19;101549.13;;;18.59;57.44
11523;BME280;70090;43.208;27.904;2023-05-12T07:54:46;101557.06;;;18.68;58.04
11523;BME280;70090;43.208;27.904;2023-05-12T07:57:13;101553.47;;;18.71;56.39
11523;BME280;70090;43.208;27.904;2023-05-12T07:59:41;101560.22;;;18.77;58.29
11523;BME280;70090;43.208;27.904;2023-05-12T08:02:09;101560.13;;;18.94;56.80
11523;BME280;70090;43.208;27.904;2023-05-12T08:04:36;101556.06;;;19.06;56.97
11523;BME280;70090;43.208;27.904;2023-05-12T08:07:03;101556.81;;;19.20;56.95
11523;BME280;70090;43.208;27.904;2023-05-12T08:09:30;101562.66;;;19.36;57.12
11523;BME280;70090;43.208;27.904;2023-05-12T08:11:57;101565.44;;;19.40;55.97
11523;BME280;70090;43.208;27.904;2023-05-12T08:14:23;101570.13;;;19.53;55.40
11523;BME280;70090;43.208;27.904;2023-05-12T08:16:51;101563.63;;;19.67;55.64
11523;BME280;70090;43.208;27.904;2023-05-12T08:19:19;101578.66;;;19.83;56.87
11523;BME280;70090;43.208;27.904;2023-05-12T08:21:46;101572.25;;;19.86;53.21
11523;BME280;70090;43.208;27.904;2023-05-12T08:24:13;101573.31;;;19.96;53.56
11523;BME280;70090;43.208;27.904;2023-05-12T08:26:40;101572.09;;;19.56;52.74
11523;BME280;70090;43.208;27.904;2023-05-12T08:29:06;101566.09;;;19.61;55.58
11523;BME280;70090;43.208;27.904;2023-05-12T08:31:34;101573.53;;;19.75;59.46
11523;BME280;70090;43.208;27.904;2023-05-12T08:34:01;101577.41;;;19.88;60.72
11523;BME280;70090;43.208;27.904;2023-05-12T08:36:30;101580.25;;;19.81;63.79
11523;BME280;70090;43.208;27.904;2023-05-12T08:38:57;101577.47;;;19.81;62.62
11523;BME280;70090;43.208;27.904;2023-05-12T08:41:33;101573.59;;;19.68;67.90
11523;BME280;70090;43.208;27.904;2023-05-12T08:44:02;101577.06;;;19.31;70.98
11523;BME280;70090;43.208;27.904;2023-05-12T08:46:30;101581.53;;;19.22;73.16
11523;BME280;70090;43.208;27.904;2023-05-12T08:48:58;101587.88;;;19.26;74.20
11523;BME280;70090;43.208;27.904;2023-05-12T08:51:27;101576.09;;;18.90;72.96
11523;BME280;70090;43.208;27.904;2023-05-12T08:53:56;101581.53;;;19.15;75.87
11523;BME280;70090;43.208;27.904;2023-05-12T08:56:24;101581.81;;;19.34;76.58
11523;BME280;70090;43.208;27.904;2023-05-12T08:58:52;101587.63;;;19.57;76.14
11523;BME280;70090;43.208;27.904;2023-05-12T09:01:22;101595.81;;;19.82;74.11
11523;BME280;70090;43.208;27.904;2023-05-12T09:03:50;101583.78;;;19.88;73.85
11523;BME280;70090;43.208;27.904;2023-05-12T09:06:18;101589.69;;;19.97;72.53
11523;BME280;70090;43.208;27.904;2023-05-12T09:08:44;101591.53;;;20.18;72.02
11523;BME280;70090;43.208;27.904;2023-05-12T09:11:13;101584.94;;;20.34;72.04
11523;BME280;70090;43.208;27.904;2023-05-12T09:13:48;101593.09;;;20.55;70.71
11523;BME280;70090;43.208;27.904;2023-05-12T09:16:19;101601.41;;;20.62;70.14
11523;BME280;70090;43.208;27.904;2023-05-12T09:18:50;101578.84;;;20.76;69.91
11523;BME280;70090;43.208;27.904;2023-05-12T09:21:17;101584.09;;;20.74;69.34
11523;BME280;70090;43.208;27.904;2023-05-12T09:23:52;101586.50;;;20.72;68.07
11523;BME280;70090;43.208;27.904;2023-05-12T09:26:20;101578.94;;;20.36;65.30
11523;BME280;70090;43.208;27.904;2023-05-12T09:28:49;101583.50;;;20.23;66.45
11523;BME280;70090;43.208;27.904;2023-05-12T09:31:17;101588.75;;;20.18;70.29
11523;BME280;70090;43.208;27.904;2023-05-12T09:33:44;101579.25;;;20.05;70.89
11523;BME280;70090;43.208;27.904;2023-05-12T09:36:11;101573.69;;;20.05;72.14
11523;BME280;70090;43.208;27.904;2023-05-12T09:38:42;101578.56;;;19.90;72.65
11523;BME280;70090;43.208;27.904;2023-05-12T09:41:08;101569.06;;;19.84;70.43
11523;BME280;70090;43.208;27.904;2023-05-12T09:43:43;101572.78;;;19.71;66.94
11523;BME280;70090;43.208;27.904;2023-05-12T09:46:10;101577.28;;;19.54;69.60
11523;BME280;70090;43.208;27.904;2023-05-12T09:48:39;101575.09;;;19.28;69.16
11523;BME280;70090;43.208;27.904;2023-05-12T09:51:08;101582.28;;;19.29;73.41
11523;BME280;70090;43.208;27.904;2023-05-12T09:53:40;101579.13;;;19.24;72.42
11523;BME280;70090;43.208;27.904;2023-05-12T09:56:09;101577.91;;;19.25;71.33
11523;BME280;70090;43.208;27.904;2023-05-12T09:58:41;101577.44;;;19.37;70.65
11523;BME280;70090;43.208;27.904;2023-05-12T10:01:09;101574.63;;;19.40;70.43
11523;BME280;70090;43.208;27.904;2023-05-12T10:03:39;101573.44;;;19.34;66.15
11523;BME280;70090;43.208;27.904;2023-05-12T10:06:08;101571.16;;;19.15;70.64
11523;BME280;70090;43.208;27.904;2023-05-12T10:08:37;101572.38;;;19.11;70.73
11523;BME280;70090;43.208;27.904;2023-05-12T10:11:07;101570.41;;;19.04;68.79
11523;BME280;70090;43.208;27.904;2023-05-12T10:13:35;101571.63;;;19.00;69.04
11523;BME280;70090;43.208;27.904;2023-05-12T10:16:04;101575.34;;;18.83;68.13
11523;BME280;70090;43.208;27.904;2023-05-12T10:18:32;101563.78;;;18.84;68.19
11523;BME280;70090;43.208;27.904;2023-05-12T10:21:00;101565.38;;;18.85;67.30
11523;BME280;70090;43.208;27.904;2023-05-12T10:23:27;101564.09;;;18.93;67.73
11523;BME280;70090;43.208;27.904;2023-05-12T10:25:54;101570.53;;;18.87;69.04
11523;BME280;70090;43.208;27.904;2023-05-12T10:28:23;101568.97;;;18.79;68.20
11523;BME280;70090;43.208;27.904;2023-05-12T10:30:50;101569.75;;;18.83;67.07
11523;BME280;70090;43.208;27.904;2023-05-12T10:33:20;101566.22;;;18.75;67.93
11523;BME280;70090;43.208;27.904;2023-05-12T10:35:47;101561.78;;;18.78;66.23
11523;BME280;70090;43.208;27.904;2023-05-12T10:38:14;101565.41;;;18.71;66.85
11523;BME280;70090;43.208;27.904;2023-05-12T10:40:52;101565.38;;;18.78;66.59
11523;BME280;70090;43.208;27.904;2023-05-12T10:43:22;101568.94;;;18.82;62.83
11523;BME280;70090;43.208;27.904;2023-05-12T10:46:08;101561.38;;;18.90;65.34
11523;BME280;70090;43.208;27.904;2023-05-12T10:48:49;101558.09;;;19.02;64.32
11523;BME280;70090;43.208;27.904;2023-05-12T10:51:18;101572.44;;;19.04;63.01
11523;BME280;70090;43.208;27.904;2023-05-12T10:53:50;101566.56;;;18.84;60.57
11523;BME280;70090;43.208;27.904;2023-05-12T10:56:21;101566.56;;;18.84;59.76
11523;BME280;70090;43.208;27.904;2023-05-12T10:59:06;101537.97;;;18.63;59.77
11523;BME280;70090;43.208;27.904;2023-05-12T11:01:33;101565.69;;;18.98;60.39
11523;BME280;70090;43.208;27.904;2023-05-12T11:04:10;101565.69;;;18.94;59.06
11523;BME280;70090;43.208;27.904;2023-05-12T11:06:37;101564.16;;;18.90;58.50
11523;BME280;70090;43.208;27.904;2023-05-12T11:09:04;101560.56;;;18.86;59.52
11523;BME280;70090;43.208;27.904;2023-05-12T11:11:31;101549.06;;;18.77;58.74
11523;BME280;70090;43.208;27.904;2023-05-12T11:13:59;101569.41;;;18.74;58.83
11523;BME280;70090;43.208;27.904;2023-05-12T11:16:26;101563.00;;;18.73;60.38
11523;BME280;70090;43.208;27.904;2023-05-12T11:19:00;101569.75;;;18.83;60.71
11523;BME280;70090;43.208;27.904;2023-05-12T11:21:30;101577.75;;;18.74;62.49
11523;BME280;70090;43.208;27.904;2023-05-12T11:23:58;101569.38;;;18.81;61.27
11523;BME280;70090;43.208;27.904;2023-05-12T11:26:25;101577.66;;;18.95;60.68
11523;BME280;70090;43.208;27.904;2023-05-12T11:28:52;101570.00;;;19.13;60.26
11523;BME280;70090;43.208;27.904;2023-05-12T11:31:20;101573.47;;;19.31;59.38
11523;BME280;70090;43.208;27.904;2023-05-12T11:33:48;101567.84;;;19.41;53.43
11523;BME280;70090;43.208;27.904;2023-05-12T11:36:15;101576.59;;;19.40;55.05
11523;BME280;70090;43.208;27.904;2023-05-12T11:38:50;101573.38;;;19.48;55.12
11523;BME280;70090;43.208;27.904;2023-05-12T11:41:23;101580.38;;;19.70;54.08
11523;BME280;70090;43.208;27.904;2023-05-12T11:43:51;101571.06;;;19.84;53.10
11523;BME280;70090;43.208;27.904;2023-05-12T11:46:24;101575.06;;;19.83;52.10
11523;BME280;70090;43.208;27.904;2023-05-12T11:48:55;101572.03;;;19.63;52.80
11523;BME280;70090;43.208;27.904;2023-05-12T11:51:23;101566.47;;;19.60;55.07
11523;BME280;70090;43.208;27.904;2023-05-12T11:53:52;101573.22;;;19.66;55.23
11523;BME280;70090;43.208;27.904;2023-05-12T11:56:21;101571.75;;;19.47;53.35
11523;BME280;70090;43.208;27.904;2023-05-12T11:58:52;101579.72;;;19.49;55.37
11523;BME280;70090;43.208;27.904;2023-05-12T12:01:20;101575.84;;;19.36;52.58
11523;BME280;70090;43.208;27.904;2023-05-12T12:03:48;101576.19;;;19.45;52.28
11523;BME280;70090;43.208;27.904;2023-05-12T12:06:16;101575.19;;;19.69;52.04
11523;BME280;70090;43.208;27.904;2023-05-12T12:08:51;101572.34;;;19.76;49.84
11523;BME280;70090;43.208;27.904;2023-05-12T12:11:19;101573.66;;;19.61;48.65
11523;BME280;70090;43.208;27.904;2023-05-12T12:13:47;101569.53;;;19.28;50.11
11523;BME280;70090;43.208;27.904;2023-05-12T12:16:16;101569.44;;;19.39;49.12
11523;BME280;70090;43.208;27.904;2023-05-12T12:18:43;101537.63;;;19.26;45.88
11523;BME280;70090;43.208;27.904;2023-05-12T12:21:10;101567.63;;;19.66;47.28
11523;BME280;70090;43.208;27.904;2023-05-12T12:23:37;101562.28;;;19.82;47.84
11523;BME280;70090;43.208;27.904;2023-05-12T12:26:05;101564.19;;;19.92;48.78
11523;BME280;70090;43.208;27.904;2023-05-12T12:28:32;101559.41;;;19.92;48.04
11523;BME280;70090;43.208;27.904;2023-05-12T12:30:59;101563.16;;;20.19;46.47
11523;BME280;70090;43.208;27.904;2023-05-12T12:33:26;101557.28;;;20.43;45.83
11523;BME280;70090;43.208;27.904;2023-05-12T12:35:53;101554.56;;;20.70;46.16
11523;BME280;70090;43.208;27.904;2023-05-12T12:38:20;101552.94;;;21.02;45.27